sensor_id;sensor_type;location;lat;lon;timestamp;P1;durP1;ratioP1;P2;durP2;ratioP2
25980;SDS011;13772;52.996;9.124;2022-09-25T09:18:00;6.90;;;2.13;;
25980;SDS011;13772;52.996;9.124;2022-09-25T09:20:36;5.50;;;1.85;;
25980;SDS011;13772;52.996;9.124;2022-09-25T09:23:04;5.03;;;2.17;;
25980;SDS011;13772;52.996;9.124;2022-09-25T09:25:47;5.53;;;2.13;;
25980;SDS011;13772;52.996;9.124;2022-09-25T09:28:20;5.25;;;1.75;;
25980;SDS011;13772;52.996;9.124;2022-09-25T09:30:52;5.20;;;1.40;;
25980;SDS011;13772;52.996;9.124;2022-09-25T09:33:24;6.25;;;1.75;;
25980;SDS011;13772;52.996;9.124;2022-09-25T09:36:12;7.70;;;1.42;;
25980;SDS011;13772;52.996;9.124;2022-09-25T09:41:24;4.57;;;1.60;;
25980;SDS011;13772;52.996;9.124;2022-09-25T09:44:04;7.70;;;1.42;;
25980;SDS011;13772;52.996;9.124;2022-09-25T09:51:34;6.70;;;1.60;;
25980;SDS011;13772;52.996;9.124;2022-09-25T09:54:14;8.27;;;1.58;;
25980;SDS011;13772;52.996;9.124;2022-09-25T09:56:41;4.22;;;1.02;;
25980;SDS011;13772;52.996;9.124;2022-09-25T09:59:11;3.85;;;1.05;;
25980;SDS011;13772;52.996;9.124;2022-09-25T10:01:38;4.25;;;1.33;;
25980;SDS011;13772;52.996;9.124;2022-09-25T10:04:07;4.78;;;1.20;;
25980;SDS011;13772;52.996;9.124;2022-09-25T10:06:34;6.43;;;1.30;;
25980;SDS011;13772;52.996;9.124;2022-09-25T10:09:01;3.38;;;1.30;;
25980;SDS011;13772;52.996;9.124;2022-09-25T10:11:26;2.92;;;1.20;;
25980;SDS011;13772;52.996;9.124;2022-09-25T10:13:52;6.57;;;1.40;;
25980;SDS011;13772;52.996;9.124;2022-09-25T10:16:22;3.75;;;1.10;;
25980;SDS011;13772;52.996;9.124;2022-09-25T10:18:50;4.15;;;1.60;;
25980;SDS011;13772;52.996;9.124;2022-09-25T10:21:20;5.13;;;1.42;;
25980;SDS011;13772;52.996;9.124;2022-09-25T10:23:47;4.07;;;1.00;;
25980;SDS011;13772;52.996;9.124;2022-09-25T10:26:23;2.75;;;1.00;;
25980;SDS011;13772;52.996;9.124;2022-09-25T10:28:48;2.78;;;1.15;;
25980;SDS011;13772;52.996;9.124;2022-09-25T10:31:14;2.42;;;0.90;;
25980;SDS011;13772;52.996;9.124;2022-09-25T10:33:40;4.80;;;0.80;;
25980;SDS011;13772;52.996;9.124;2022-09-25T10:36:05;1.80;;;0.80;;
25980;SDS011;13772;52.996;9.124;2022-09-25T10:38:36;4.85;;;0.80;;
25980;SDS011;13772;52.996;9.124;2022-09-25T10:41:06;4.38;;;0.90;;
25980;SDS011;13772;52.996;9.124;2022-09-25T10:43:32;3.75;;;0.90;;
25980;SDS011;13772;52.996;9.124;2022-09-25T10:46:17;2.42;;;0.85;;
25980;SDS011;13772;52.996;9.124;2022-09-25T10:49:11;4.83;;;0.93;;
25980;SDS011;13772;52.996;9.124;2022-09-25T10:52:06;3.97;;;0.80;;
25980;SDS011;13772;52.996;9.124;2022-09-25T10:54:31;3.70;;;1.00;;
25980;SDS011;13772;52.996;9.124;2022-09-25T10:56:57;2.90;;;0.93;;
25980;SDS011;13772;52.996;9.124;2022-09-25T10:59:23;3.50;;;1.00;;
25980;SDS011;13772;52.996;9.124;2022-09-25T11:01:49;3.67;;;0.68;;
25980;SDS011;13772;52.996;9.124;2022-09-25T11:04:16;3.08;;;0.80;;
25980;SDS011;13772;52.996;9.124;2022-09-25T11:06:44;4.15;;;0.70;;
25980;SDS011;13772;52.996;9.124;2022-09-25T11:09:15;2.60;;;0.75;;
25980;SDS011;13772;52.996;9.124;2022-09-25T11:11:41;3.53;;;0.98;;
25980;SDS011;13772;52.996;9.124;2022-09-25T11:14:29;4.40;;;1.00;;
25980;SDS011;13772;52.996;9.124;2022-09-25T11:16:57;2.80;;;0.77;;
25980;SDS011;13772;52.996;9.124;2022-09-25T11:19:30;2.95;;;1.10;;
25980;SDS011;13772;52.996;9.124;2022-09-25T11:24:42;4.32;;;0.80;;
25980;SDS011;13772;52.996;9.124;2022-09-25T11:30:08;4.90;;;0.95;;
25980;SDS011;13772;52.996;9.124;2022-09-25T11:32:42;1.98;;;0.75;;
25980;SDS011;13772;52.996;9.124;2022-09-25T11:40:33;3.97;;;1.13;;
25980;SDS011;13772;52.996;9.124;2022-09-25T11:43:22;3.70;;;0.95;;
25980;SDS011;13772;52.996;9.124;2022-09-25T11:45:54;2.78;;;0.90;;
25980;SDS011;13772;52.996;9.124;2022-09-25T11:48:37;6.55;;;1.38;;
25980;SDS011;13772;52.996;9.124;2022-09-25T11:53:56;5.10;;;0.90;;
25980;SDS011;13772;52.996;9.124;2022-09-25T11:56:27;5.27;;;1.20;;
25980;SDS011;13772;52.996;9.124;2022-09-25T11:59:04;5.43;;;0.80;;
25980;SDS011;13772;52.996;9.124;2022-09-25T12:01:35;3.15;;;0.93;;
25980;SDS011;13772;52.996;9.124;2022-09-25T12:06:38;4.75;;;0.90;;
25980;SDS011;13772;52.996;9.124;2022-09-25T12:11:56;5.95;;;0.90;;
25980;SDS011;13772;52.996;9.124;2022-09-25T12:14:34;2.95;;;0.80;;
25980;SDS011;13772;52.996;9.124;2022-09-25T12:19:40;3.65;;;0.75;;
25980;SDS011;13772;52.996;9.124;2022-09-25T12:24:56;5.10;;;0.98;;
25980;SDS011;13772;52.996;9.124;2022-09-25T12:27:42;3.67;;;1.00;;
25980;SDS011;13772;52.996;9.124;2022-09-25T12:33:22;7.50;;;1.90;;
25980;SDS011;13772;52.996;9.124;2022-09-25T12:40:47;9.65;;;2.10;;
25980;SDS011;13772;52.996;9.124;2022-09-25T12:43:34;5.60;;;1.50;;
25980;SDS011;13772;52.996;9.124;2022-09-25T12:48:49;12.18;;;2.00;;
25980;SDS011;13772;52.996;9.124;2022-09-25T12:51:28;6.90;;;1.23;;
25980;SDS011;13772;52.996;9.124;2022-09-25T12:53:56;6.65;;;1.48;;
25980;SDS011;13772;52.996;9.124;2022-09-25T12:56:26;5.47;;;1.13;;
25980;SDS011;13772;52.996;9.124;2022-09-25T12:59:01;7.25;;;1.50;;
25980;SDS011;13772;52.996;9.124;2022-09-25T13:04:20;5.78;;;0.90;;
25980;SDS011;13772;52.996;9.124;2022-09-25T13:06:49;7.18;;;1.25;;
25980;SDS011;13772;52.996;9.124;2022-09-25T13:14:24;4.72;;;1.27;;
25980;SDS011;13772;52.996;9.124;2022-09-25T13:16:51;5.45;;;1.10;;
25980;SDS011;13772;52.996;9.124;2022-09-25T13:19:23;4.95;;;0.93;;
25980;SDS011;13772;52.996;9.124;2022-09-25T13:21:49;5.43;;;1.13;;
25980;SDS011;13772;52.996;9.124;2022-09-25T13:24:15;7.93;;;1.05;;
25980;SDS011;13772;52.996;9.124;2022-09-25T13:26:43;6.05;;;0.90;;
25980;SDS011;13772;52.996;9.124;2022-09-25T13:29:20;4.63;;;0.90;;
25980;SDS011;13772;52.996;9.124;2022-09-25T13:31:45;5.07;;;1.00;;
25980;SDS011;13772;52.996;9.124;2022-09-25T13:34:12;7.22;;;1.00;;
25980;SDS011;13772;52.996;9.124;2022-09-25T13:39:04;3.50;;;0.90;;
25980;SDS011;13772;52.996;9.124;2022-09-25T13:52:27;5.18;;;1.00;;
25980;SDS011;13772;52.996;9.124;2022-09-25T13:55:06;5.93;;;0.90;;
25980;SDS011;13772;52.996;9.124;2022-09-25T14:00:16;5.97;;;1.20;;
25980;SDS011;13772;52.996;9.124;2022-09-25T14:02:42;5.72;;;1.10;;
25980;SDS011;13772;52.996;9.124;2022-09-25T14:05:08;4.80;;;0.95;;
25980;SDS011;13772;52.996;9.124;2022-09-25T14:07:38;6.43;;;1.25;;
25980;SDS011;13772;52.996;9.124;2022-09-25T14:10:07;4.22;;;0.98;;
25980;SDS011;13772;52.996;9.124;2022-09-25T14:12:35;5.75;;;0.80;;
25980;SDS011;13772;52.996;9.124;2022-09-25T14:15:05;6.32;;;0.90;;
25980;SDS011;13772;52.996;9.124;2022-09-25T14:17:31;6.53;;;0.90;;
25980;SDS011;13772;52.996;9.124;2022-09-25T14:19:58;4.95;;;1.02;;
25980;SDS011;13772;52.996;9.124;2022-09-25T14:22:43;3.97;;;0.75;;
25980;SDS011;13772;52.996;9.124;2022-09-25T14:27:57;4.45;;;0.90;;
25980;SDS011;13772;52.996;9.124;2022-09-25T14:30:22;5.90;;;1.15;;
25980;SDS011;13772;52.996;9.124;2022-09-25T14:33:09;6.25;;;1.02;;
25980;SDS011;13772;52.996;9.124;2022-09-25T14:35:45;6.15;;;0.90;;
25980;SDS011;13772;52.996;9.124;2022-09-25T14:41:03;6.97;;;1.15;;
25980;SDS011;13772;52.996;9.124;2022-09-25T14:43:42;4.72;;;0.75;;
25980;SDS011;13772;52.996;9.124;2022-09-25T14:46:14;4.40;;;0.90;;
25980;SDS011;13772;52.996;9.124;2022-09-25T14:48:45;6.05;;;1.05;;
25980;SDS011;13772;52.996;9.124;2022-09-25T14:51:12;6.07;;;1.65;;
25980;SDS011;13772;52.996;9.124;2022-09-25T14:53:45;5.68;;;1.00;;
25980;SDS011;13772;52.996;9.124;2022-09-25T14:56:12;3.22;;;0.60;;
25980;SDS011;13772;52.996;9.124;2022-09-25T14:58:45;6.65;;;1.10;;
25980;SDS011;13772;52.996;9.124;2022-09-25T15:01:14;4.63;;;0.80;;
25980;SDS011;13772;52.996;9.124;2022-09-25T15:03:42;3.70;;;0.90;;
25980;SDS011;13772;52.996;9.124;2022-09-25T15:06:09;7.57;;;0.98;;
25980;SDS011;13772;52.996;9.124;2022-09-25T15:08:36;4.22;;;0.80;;
25980;SDS011;13772;52.996;9.124;2022-09-25T15:11:09;3.13;;;0.73;;
25980;SDS011;13772;52.996;9.124;2022-09-25T15:13:35;6.03;;;0.90;;
25980;SDS011;13772;52.996;9.124;2022-09-25T15:16:00;4.35;;;0.70;;
25980;SDS011;13772;52.996;9.124;2022-09-25T15:18:45;4.20;;;0.82;;
25980;SDS011;13772;52.996;9.124;2022-09-25T15:21:13;3.85;;;0.82;;
25980;SDS011;13772;52.996;9.124;2022-09-25T15:23:40;8.18;;;1.45;;
25980;SDS011;13772;52.996;9.124;2022-09-25T15:26:10;3.97;;;1.00;;
25980;SDS011;13772;52.996;9.124;2022-09-25T15:28:38;6.38;;;0.80;;
25980;SDS011;13772;52.996;9.124;2022-09-25T15:31:05;5.18;;;0.93;;
25980;SDS011;13772;52.996;9.124;2022-09-25T15:33:31;5.53;;;1.10;;
25980;SDS011;13772;52.996;9.124;2022-09-25T15:36:02;4.78;;;1.00;;
25980;SDS011;13772;52.996;9.124;2022-09-25T15:38:36;8.02;;;0.82;;
25980;SDS011;13772;52.996;9.124;2022-09-25T15:43:26;6.70;;;1.03;;
25980;SDS011;13772;52.996;9.124;2022-09-25T15:45:57;4.13;;;0.52;;
25980;SDS011;13772;52.996;9.124;2022-09-25T15:48:29;5.65;;;0.80;;
25980;SDS011;13772;52.996;9.124;2022-09-25T15:50:57;4.85;;;1.25;;
25980;SDS011;13772;52.996;9.124;2022-09-25T15:53:25;6.35;;;0.85;;
25980;SDS011;13772;52.996;9.124;2022-09-25T15:55:59;5.88;;;1.00;;
25980;SDS011;13772;52.996;9.124;2022-09-25T15:58:25;4.90;;;1.00;;
25980;SDS011;13772;52.996;9.124;2022-09-25T16:00:57;3.15;;;0.80;;
25980;SDS011;13772;52.996;9.124;2022-09-25T16:03:43;4.32;;;0.70;;
25980;SDS011;13772;52.996;9.124;2022-09-25T16:06:28;5.32;;;1.33;;
25980;SDS011;13772;52.996;9.124;2022-09-25T16:09:07;5.75;;;1.30;;
25980;SDS011;13772;52.996;9.124;2022-09-25T16:11:33;3.37;;;0.90;;
25980;SDS011;13772;52.996;9.124;2022-09-25T16:14:16;9.02;;;1.13;;
25980;SDS011;13772;52.996;9.124;2022-09-25T16:16:44;2.78;;;0.70;;
25980;SDS011;13772;52.996;9.124;2022-09-25T16:21:45;4.38;;;1.27;;
25980;SDS011;13772;52.996;9.124;2022-09-25T16:24:19;6.93;;;0.98;;
25980;SDS011;13772;52.996;9.124;2022-09-25T16:26:45;5.07;;;1.05;;
25980;SDS011;13772;52.996;9.124;2022-09-25T16:29:18;6.38;;;1.83;;
25980;SDS011;13772;52.996;9.124;2022-09-25T16:31:44;9.57;;;2.28;;
25980;SDS011;13772;52.996;9.124;2022-09-25T16:34:17;7.07;;;1.55;;
25980;SDS011;13772;52.996;9.124;2022-09-25T16:36:43;4.15;;;1.20;;
25980;SDS011;13772;52.996;9.124;2022-09-25T16:41:38;6.20;;;1.08;;
25980;SDS011;13772;52.996;9.124;2022-09-25T16:46:39;5.28;;;1.25;;
25980;SDS011;13772;52.996;9.124;2022-09-25T16:49:05;6.22;;;1.38;;
25980;SDS011;13772;52.996;9.124;2022-09-25T16:51:30;8.98;;;2.13;;
25980;SDS011;13772;52.996;9.124;2022-09-25T16:53:59;5.28;;;1.13;;
25980;SDS011;13772;52.996;9.124;2022-09-25T16:56:28;3.10;;;1.00;;
25980;SDS011;13772;52.996;9.124;2022-09-25T16:58:54;7.13;;;1.17;;
25980;SDS011;13772;52.996;9.124;2022-09-25T17:01:20;9.13;;;1.75;;
25980;SDS011;13772;52.996;9.124;2022-09-25T17:03:46;6.00;;;1.73;;
25980;SDS011;13772;52.996;9.124;2022-09-25T17:06:18;13.98;;;1.65;;
25980;SDS011;13772;52.996;9.124;2022-09-25T17:08:43;5.88;;;1.50;;
25980;SDS011;13772;52.996;9.124;2022-09-25T17:11:12;7.80;;;1.67;;
25980;SDS011;13772;52.996;9.124;2022-09-25T17:13:37;7.93;;;2.05;;
25980;SDS011;13772;52.996;9.124;2022-09-25T17:16:03;7.50;;;2.20;;
25980;SDS011;13772;52.996;9.124;2022-09-25T17:18:28;7.70;;;1.98;;
25980;SDS011;13772;52.996;9.124;2022-09-25T17:20:54;7.80;;;1.85;;
25980;SDS011;13772;52.996;9.124;2022-09-25T17:23:21;7.13;;;2.13;;
25980;SDS011;13772;52.996;9.124;2022-09-25T17:25:51;5.43;;;1.90;;
25980;SDS011;13772;52.996;9.124;2022-09-25T17:28:16;4.70;;;1.77;;
25980;SDS011;13772;52.996;9.124;2022-09-25T17:30:42;4.30;;;1.35;;
25980;SDS011;13772;52.996;9.124;2022-09-25T17:33:14;5.22;;;1.20;;
25980;SDS011;13772;52.996;9.124;2022-09-25T17:35:50;5.32;;;1.42;;
25980;SDS011;13772;52.996;9.124;2022-09-25T17:38:16;6.55;;;1.83;;
25980;SDS011;13772;52.996;9.124;2022-09-25T17:40:42;5.15;;;2.70;;
25980;SDS011;13772;52.996;9.124;2022-09-25T17:43:09;7.93;;;3.72;;
25980;SDS011;13772;52.996;9.124;2022-09-25T17:45:36;12.55;;;4.30;;
25980;SDS011;13772;52.996;9.124;2022-09-25T17:48:02;8.63;;;3.42;;
25980;SDS011;13772;52.996;9.124;2022-09-25T17:50:28;9.02;;;2.97;;
25980;SDS011;13772;52.996;9.124;2022-09-25T17:52:55;7.75;;;3.13;;
25980;SDS011;13772;52.996;9.124;2022-09-25T17:55:21;7.05;;;2.83;;
25980;SDS011;13772;52.996;9.124;2022-09-25T17:57:46;6.35;;;3.20;;
25980;SDS011;13772;52.996;9.124;2022-09-25T18:00:12;11.10;;;3.58;;
25980;SDS011;13772;52.996;9.124;2022-09-25T18:02:38;11.40;;;4.15;;
25980;SDS011;13772;52.996;9.124;2022-09-25T18:05:03;9.13;;;3.53;;
25980;SDS011;13772;52.996;9.124;2022-09-25T18:07:28;7.50;;;3.70;;
25980;SDS011;13772;52.996;9.124;2022-09-25T18:09:56;11.93;;;4.15;;
25980;SDS011;13772;52.996;9.124;2022-09-25T18:12:21;10.15;;;3.63;;
25980;SDS011;13772;52.996;9.124;2022-09-25T18:14:47;7.25;;;3.88;;
25980;SDS011;13772;52.996;9.124;2022-09-25T18:17:15;10.00;;;4.40;;
25980;SDS011;13772;52.996;9.124;2022-09-25T18:19:40;9.98;;;4.40;;
25980;SDS011;13772;52.996;9.124;2022-09-25T18:22:24;18.15;;;7.65;;
25980;SDS011;13772;52.996;9.124;2022-09-25T18:24:50;22.42;;;9.30;;
25980;SDS011;13772;52.996;9.124;2022-09-25T18:27:20;26.05;;;11.35;;
25980;SDS011;13772;52.996;9.124;2022-09-25T18:29:45;20.02;;;8.77;;
25980;SDS011;13772;52.996;9.124;2022-09-25T18:32:11;19.67;;;8.00;;
25980;SDS011;13772;52.996;9.124;2022-09-25T18:34:37;16.30;;;7.50;;
25980;SDS011;13772;52.996;9.124;2022-09-25T18:37:02;13.88;;;6.32;;
25980;SDS011;13772;52.996;9.124;2022-09-25T18:39:27;11.23;;;5.72;;
25980;SDS011;13772;52.996;9.124;2022-09-25T18:41:54;12.23;;;6.07;;
25980;SDS011;13772;52.996;9.124;2022-09-25T18:44:19;14.00;;;7.07;;
25980;SDS011;13772;52.996;9.124;2022-09-25T18:46:47;12.40;;;6.25;;
25980;SDS011;13772;52.996;9.124;2022-09-25T18:49:12;11.45;;;6.30;;
25980;SDS011;13772;52.996;9.124;2022-09-25T18:51:38;10.98;;;5.28;;
25980;SDS011;13772;52.996;9.124;2022-09-25T18:54:04;10.85;;;5.63;;
25980;SDS011;13772;52.996;9.124;2022-09-25T18:56:29;14.18;;;5.15;;
25980;SDS011;13772;52.996;9.124;2022-09-25T18:58:55;13.18;;;6.03;;
25980;SDS011;13772;52.996;9.124;2022-09-25T19:01:21;14.32;;;6.40;;
25980;SDS011;13772;52.996;9.124;2022-09-25T19:03:49;12.80;;;7.30;;
25980;SDS011;13772;52.996;9.124;2022-09-25T19:06:16;18.45;;;10.52;;
25980;SDS011;13772;52.996;9.124;2022-09-25T19:08:41;22.20;;;10.73;;
25980;SDS011;13772;52.996;9.124;2022-09-25T19:11:10;23.73;;;11.02;;
25980;SDS011;13772;52.996;9.124;2022-09-25T19:13:36;23.40;;;12.05;;
25980;SDS011;13772;52.996;9.124;2022-09-25T19:16:01;22.60;;;12.05;;
25980;SDS011;13772;52.996;9.124;2022-09-25T19:18:27;22.42;;;11.80;;
25980;SDS011;13772;52.996;9.124;2022-09-25T19:20:53;16.90;;;9.95;;
25980;SDS011;13772;52.996;9.124;2022-09-25T19:23:22;17.65;;;9.27;;
25980;SDS011;13772;52.996;9.124;2022-09-25T19:25:51;18.55;;;8.98;;
25980;SDS011;13772;52.996;9.124;2022-09-25T19:28:16;17.95;;;8.75;;
25980;SDS011;13772;52.996;9.124;2022-09-25T19:30:41;16.33;;;8.75;;
25980;SDS011;13772;52.996;9.124;2022-09-25T19:33:06;13.85;;;8.85;;
25980;SDS011;13772;52.996;9.124;2022-09-25T19:35:32;17.85;;;8.82;;
25980;SDS011;13772;52.996;9.124;2022-09-25T19:37:57;13.88;;;7.97;;
25980;SDS011;13772;52.996;9.124;2022-09-25T19:40:23;14.23;;;7.75;;
25980;SDS011;13772;52.996;9.124;2022-09-25T19:43:00;10.00;;;5.50;;
25980;SDS011;13772;52.996;9.124;2022-09-25T19:45:25;11.52;;;5.50;;
25980;SDS011;13772;52.996;9.124;2022-09-25T19:47:50;12.20;;;4.45;;
25980;SDS011;13772;52.996;9.124;2022-09-25T19:50:15;11.85;;;4.53;;
25980;SDS011;13772;52.996;9.124;2022-09-25T19:52:42;13.05;;;4.60;;
25980;SDS011;13772;52.996;9.124;2022-09-25T19:55:08;8.85;;;3.55;;
25980;SDS011;13772;52.996;9.124;2022-09-25T19:57:33;12.55;;;4.72;;
25980;SDS011;13772;52.996;9.124;2022-09-25T19:59:58;10.02;;;3.92;;
25980;SDS011;13772;52.996;9.124;2022-09-25T20:02:24;6.93;;;3.50;;
25980;SDS011;13772;52.996;9.124;2022-09-25T20:04:49;6.75;;;3.60;;
25980;SDS011;13772;52.996;9.124;2022-09-25T20:07:14;8.48;;;4.30;;
25980;SDS011;13772;52.996;9.124;2022-09-25T20:09:40;8.02;;;3.72;;
25980;SDS011;13772;52.996;9.124;2022-09-25T20:12:05;7.38;;;4.00;;
25980;SDS011;13772;52.996;9.124;2022-09-25T20:14:31;8.95;;;4.10;;
25980;SDS011;13772;52.996;9.124;2022-09-25T20:16:56;9.00;;;3.92;;
25980;SDS011;13772;52.996;9.124;2022-09-25T20:19:21;12.50;;;3.72;;
25980;SDS011;13772;52.996;9.124;2022-09-25T20:21:47;10.68;;;3.97;;
25980;SDS011;13772;52.996;9.124;2022-09-25T20:24:12;14.10;;;4.15;;
25980;SDS011;13772;52.996;9.124;2022-09-25T20:26:37;10.18;;;3.40;;
25980;SDS011;13772;52.996;9.124;2022-09-25T20:29:06;11.68;;;3.78;;
25980;SDS011;13772;52.996;9.124;2022-09-25T20:31:32;11.70;;;3.28;;
25980;SDS011;13772;52.996;9.124;2022-09-25T20:33:58;7.35;;;3.15;;
25980;SDS011;13772;52.996;9.124;2022-09-25T20:36:23;8.27;;;3.05;;
25980;SDS011;13772;52.996;9.124;2022-09-25T20:38:49;10.52;;;3.55;;
25980;SDS011;13772;52.996;9.124;2022-09-25T20:41:15;10.93;;;4.57;;
25980;SDS011;13772;52.996;9.124;2022-09-25T20:43:40;9.57;;;3.55;;
25980;SDS011;13772;52.996;9.124;2022-09-25T20:46:08;9.98;;;3.45;;
25980;SDS011;13772;52.996;9.124;2022-09-25T20:48:35;9.13;;;4.13;;
25980;SDS011;13772;52.996;9.124;2022-09-25T20:51:04;7.18;;;3.47;;
25980;SDS011;13772;52.996;9.124;2022-09-25T20:53:30;9.02;;;4.28;;
25980;SDS011;13772;52.996;9.124;2022-09-25T20:56:01;8.52;;;4.03;;
25980;SDS011;13772;52.996;9.124;2022-09-25T20:58:27;8.10;;;3.88;;
25980;SDS011;13772;52.996;9.124;2022-09-25T21:00:57;8.00;;;3.67;;
25980;SDS011;13772;52.996;9.124;2022-09-25T21:03:22;9.27;;;3.63;;
25980;SDS011;13772;52.996;9.124;2022-09-25T21:05:48;10.75;;;3.88;;
25980;SDS011;13772;52.996;9.124;2022-09-25T21:08:13;11.48;;;4.13;;
25980;SDS011;13772;52.996;9.124;2022-09-25T21:10:38;9.45;;;3.75;;
25980;SDS011;13772;52.996;9.124;2022-09-25T21:13:04;11.48;;;5.47;;
25980;SDS011;13772;52.996;9.124;2022-09-25T21:15:31;13.18;;;5.85;;
25980;SDS011;13772;52.996;9.124;2022-09-25T21:17:56;14.85;;;5.63;;
25980;SDS011;13772;52.996;9.124;2022-09-25T21:20:21;12.00;;;4.18;;
25980;SDS011;13772;52.996;9.124;2022-09-25T21:22:46;8.43;;;4.35;;
25980;SDS011;13772;52.996;9.124;2022-09-25T21:25:12;7.88;;;4.90;;
25980;SDS011;13772;52.996;9.124;2022-09-25T21:27:37;10.13;;;4.85;;
25980;SDS011;13772;52.996;9.124;2022-09-25T21:30:02;7.97;;;3.90;;
25980;SDS011;13772;52.996;9.124;2022-09-25T21:32:28;9.80;;;4.38;;
25980;SDS011;13772;52.996;9.124;2022-09-25T21:34:53;8.48;;;4.30;;
25980;SDS011;13772;52.996;9.124;2022-09-25T21:37:18;10.70;;;4.20;;
25980;SDS011;13772;52.996;9.124;2022-09-25T21:39:43;10.20;;;4.10;;
25980;SDS011;13772;52.996;9.124;2022-09-25T21:42:08;8.73;;;3.95;;
25980;SDS011;13772;52.996;9.124;2022-09-25T21:44:34;7.25;;;4.05;;
25980;SDS011;13772;52.996;9.124;2022-09-25T21:46:59;6.63;;;3.90;;
25980;SDS011;13772;52.996;9.124;2022-09-25T21:49:24;9.73;;;4.95;;
25980;SDS011;13772;52.996;9.124;2022-09-25T21:51:49;9.20;;;4.80;;
25980;SDS011;13772;52.996;9.124;2022-09-25T21:54:15;7.95;;;4.82;;
25980;SDS011;13772;52.996;9.124;2022-09-25T21:56:40;11.13;;;5.25;;
